Wetterdaten: Woche 28.07.14 - 03.08.14 (KW31)
Datum Zeit Temp. A. Feuchte A. Luftdruck Regen Wind Richtung Taupunkt Windchill Windben
28.07.2014 00:00 19,9 C 83 % 1012,2 hPa 0,0 l/m 0,0 km/h N 16,9 C 19,9 C 0,0 km/h
28.07.2014 01:00 19,1 C 83 % 1012,0 hPa 0,0 l/m 0,2 km/h N 16,1 C 19,1 C 1,6 km/h
28.07.2014 02:00 18,6 C 82 % 1012,0 hPa 0,3 l/m 0,4 km/h N 15,5 C 18,6 C 2,4 km/h
28.07.2014 03:00 18,5 C 81 % 1011,6 hPa 0,0 l/m 0,3 km/h N 15,1 C 18,5 C 2,4 km/h
28.07.2014 04:00 17,8 C 81 % 1011,3 hPa 0,3 l/m 0,0 km/h N 14,5 C 17,8 C 0,0 km/h
28.07.2014 05:00 17,9 C 80 % 1011,2 hPa 1,6 l/m 0,0 km/h N 14,4 C 17,9 C 0,0 km/h
28.07.2014 06:00 18,5 C 79 % 1011,1 hPa 0,0 l/m 0,1 km/h N 14,7 C 18,5 C 2,0 km/h
28.07.2014 07:00 19,1 C 78 % 1011,3 hPa 0,0 l/m 0,1 km/h N 15,1 C 19,1 C 1,6 km/h
28.07.2014 08:00 19,5 C 79 % 1011,6 hPa 0,3 l/m 1,9 km/h N 15,7 C 19,5 C 7,2 km/h
28.07.2014 09:00 19,8 C 81 % 1011,7 hPa 0,3 l/m 3,4 km/h N 16,4 C 19,8 C 11,3 km/h
28.07.2014 10:00 19,9 C 81 % 1011,6 hPa 0,3 l/m 2,4 km/h N 16,5 C 19,9 C 10,1 km/h
28.07.2014 11:00 20,5 C 82 % 1011,4 hPa 0,0 l/m 2,2 km/h N 17,2 C 20,5 C 6,8 km/h
28.07.2014 12:00 21,1 C 82 % 1011,3 hPa 0,0 l/m 1,2 km/h N 18,0 C 21,1 C 7,6 km/h
28.07.2014 13:00 22,8 C 77 % 1010,9 hPa 0,0 l/m 1,5 km/h N 18,6 C 22,8 C 7,6 km/h
28.07.2014 14:00 23,4 C 76 % 1010,5 hPa 0,0 l/m 1,5 km/h N 18,8 C 23,4 C 8,0 km/h
28.07.2014 15:00 24,6 C 70 % 1009,7 hPa 0,0 l/m 2,8 km/h N 18,9 C 24,6 C 10,9 km/h
28.07.2014 16:00 24,5 C 71 % 1009,3 hPa 0,0 l/m 3,1 km/h N 18,8 C 24,5 C 11,3 km/h
28.07.2014 17:00 24,8 C 68 % 1008,8 hPa 0,0 l/m 2,9 km/h N 18,6 C 24,8 C 12,5 km/h
28.07.2014 18:00 24,8 C 69 % 1008,6 hPa 0,0 l/m 2,5 km/h N 18,6 C 24,8 C 9,7 km/h
28.07.2014 19:00 24,0 C 73 % 1008,6 hPa 0,0 l/m 2,4 km/h N 18,7 C 24,0 C 8,5 km/h
28.07.2014 20:00 22,8 C 76 % 1008,9 hPa 0,0 l/m 0,7 km/h N 18,4 C 22,8 C 5,6 km/h
28.07.2014 21:00 21,8 C 79 % 1009,2 hPa 0,0 l/m 0,0 km/h N 17,9 C 21,8 C 0,8 km/h
28.07.2014 22:00 20,4 C 82 % 1009,0 hPa 0,0 l/m 0,0 km/h N 17,1 C 20,4 C 0,0 km/h
28.07.2014 23:00 19,5 C 83 % 1008,9 hPa 0,0 l/m 0,0 km/h N 16,6 C 19,5 C 0,0 km/h
29.07.2014 00:00 19,0 C 82 % 1008,7 hPa 0,0 l/m 0,0 km/h N 15,9 C 19,0 C 0,0 km/h
29.07.2014 01:00 18,8 C 81 % 1008,4 hPa 0,0 l/m 0,0 km/h N 15,5 C 18,8 C 1,6 km/h
29.07.2014 02:00 18,7 C 80 % 1008,1 hPa 0,0 l/m 0,1 km/h N 15,2 C 18,7 C 1,6 km/h
29.07.2014 03:00 18,8 C 79 % 1008,0 hPa 0,0 l/m 0,0 km/h N 15,1 C 18,8 C 0,0 km/h
29.07.2014 04:00 18,9 C 79 % 1007,7 hPa 0,0 l/m 0,0 km/h N 15,2 C 18,9 C 1,2 km/h
29.07.2014 05:00 18,8 C 78 % 1007,6 hPa 0,0 l/m 0,3 km/h N 15,0 C 18,8 C 4,0 km/h
29.07.2014 06:00 18,9 C 78 % 1007,6 hPa 0,0 l/m 0,4 km/h N 14,9 C 18,9 C 4,0 km/h
29.07.2014 07:00 19,5 C 77 % 1007,5 hPa 0,0 l/m 1,1 km/h N 15,4 C 19,5 C 7,6 km/h
29.07.2014 08:00 20,3 C 80 % 1007,5 hPa 0,0 l/m 2,8 km/h N 16,6 C 20,3 C 10,9 km/h
29.07.2014 09:00 21,3 C 83 % 1007,6 hPa 0,0 l/m 2,8 km/h N 18,2 C 21,3 C 13,3 km/h
29.07.2014 10:00 22,3 C 81 % 1007,7 hPa 0,0 l/m 3,6 km/h N 18,8 C 22,3 C 14,1 km/h
29.07.2014 11:00 23,8 C 77 % 1007,7 hPa 0,0 l/m 4,0 km/h N 19,4 C 23,8 C 12,5 km/h
29.07.2014 12:00 24,7 C 73 % 1007,3 hPa 0,0 l/m 3,6 km/h N 19,4 C 24,7 C 14,9 km/h
29.07.2014 13:00 25,0 C 70 % 1007,1 hPa 0,0 l/m 3,9 km/h N 19,2 C 25,0 C 15,7 km/h
29.07.2014 14:00 25,5 C 69 % 1006,5 hPa 0,0 l/m 4,8 km/h N 19,4 C 25,5 C 16,9 km/h
29.07.2014 15:00 26,4 C 66 % 1006,0 hPa 0,0 l/m 4,1 km/h N 19,5 C 26,4 C 17,3 km/h
29.07.2014 16:00 25,3 C 72 % 1005,8 hPa 0,0 l/m 2,7 km/h N 19,8 C 25,3 C 12,9 km/h
29.07.2014 17:00 24,8 C 76 % 1005,5 hPa 0,0 l/m 1,0 km/h N 20,1 C 24,8 C 5,2 km/h
29.07.2014 18:00 25,5 C 72 % 1004,9 hPa 0,0 l/m 2,5 km/h N 19,9 C 25,5 C 12,5 km/h
29.07.2014 19:00 25,6 C 66 % 1004,8 hPa 0,0 l/m 4,6 km/h N 18,7 C 25,6 C 14,1 km/h
29.07.2014 20:00 24,9 C 69 % 1004,7 hPa 0,0 l/m 3,4 km/h N 18,7 C 24,9 C 12,9 km/h
29.07.2014 21:00 23,3 C 71 % 1005,0 hPa 0,0 l/m 1,3 km/h N 17,8 C 23,3 C 8,8 km/h
29.07.2014 22:00 22,0 C 78 % 1005,1 hPa 0,0 l/m 3,0 km/h N 17,9 C 22,0 C 11,7 km/h
29.07.2014 23:00 21,0 C 79 % 1005,3 hPa 0,0 l/m 1,1 km/h N 17,3 C 21,0 C 4,8 km/h
30.07.2014 00:00 19,8 C 82 % 1005,4 hPa 0,0 l/m 0,0 km/h N 16,7 C 19,8 C 0,4 km/h
30.07.2014 01:00 18,9 C 83 % 1005,4 hPa 0,0 l/m 0,0 km/h N 15,9 C 18,9 C 0,0 km/h
30.07.2014 02:00 18,2 C 83 % 1005,2 hPa 0,0 l/m 0,0 km/h N 15,2 C 18,2 C 0,0 km/h
30.07.2014 03:00 18,0 C 82 % 1005,0 hPa 0,0 l/m 0,2 km/h N 15,0 C 18,0 C 1,6 km/h
30.07.2014 04:00 17,5 C 82 % 1005,0 hPa 0,0 l/m 0,0 km/h N 14,3 C 17,5 C 0,0 km/h
30.07.2014 05:00 17,1 C 81 % 1005,3 hPa 0,0 l/m 0,0 km/h N 13,8 C 17,1 C 0,0 km/h
30.07.2014 06:00 17,5 C 79 % 1005,9 hPa 0,0 l/m 0,1 km/h N 13,8 C 17,5 C 1,2 km/h
30.07.2014 07:00 19,2 C 81 % 1006,0 hPa 0,0 l/m 2,1 km/h N 15,8 C 19,2 C 6,8 km/h
30.07.2014 08:00 20,9 C 82 % 1006,2 hPa 0,0 l/m 1,8 km/h N 17,7 C 20,9 C 7,2 km/h
30.07.2014 09:00 23,2 C 76 % 1006,3 hPa 0,0 l/m 0,6 km/h N 18,7 C 23,2 C 6,4 km/h
30.07.2014 10:00 25,5 C 68 % 1006,2 hPa 0,0 l/m 0,6 km/h N 19,0 C 25,5 C 6,4 km/h
30.07.2014 11:00 26,0 C 65 % 1006,5 hPa 0,0 l/m 1,6 km/h N 18,8 C 26,0 C 8,4 km/h
30.07.2014 12:00 27,2 C 62 % 1006,2 hPa 0,0 l/m 2,9 km/h N 19,2 C 27,2 C 14,1 km/h
30.07.2014 13:00 25,7 C 69 % 1006,1 hPa 0,3 l/m 3,8 km/h N 19,4 C 25,7 C 12,1 km/h
30.07.2014 14:00 24,8 C 74 % 1006,0 hPa 0,0 l/m 1,6 km/h N 19,8 C 24,8 C 8,0 km/h
30.07.2014 15:00 24,8 C 71 % 1006,1 hPa 0,0 l/m 1,8 km/h N 19,2 C 24,8 C 10,9 km/h
30.07.2014 16:00 23,3 C 76 % 1006,0 hPa 0,0 l/m 0,3 km/h N 18,7 C 23,3 C 2,8 km/h
30.07.2014 17:00 23,3 C 78 % 1005,9 hPa 0,0 l/m 0,9 km/h N 19,2 C 23,3 C 4,4 km/h
30.07.2014 18:00 23,1 C 78 % 1005,7 hPa 0,0 l/m 0,4 km/h N 19,1 C 23,1 C 4,8 km/h
30.07.2014 19:00 22,2 C 82 % 1005,5 hPa 0,5 l/m 0,5 km/h N 18,9 C 22,2 C 2,8 km/h
30.07.2014 20:00 21,4 C 82 % 1006,0 hPa 1,3 l/m 0,3 km/h N 18,2 C 21,4 C 4,0 km/h
30.07.2014 21:00 20,8 C 81 % 1006,7 hPa 3,1 l/m 0,8 km/h N 17,4 C 20,8 C 5,6 km/h
30.07.2014 22:00 20,3 C 80 % 1006,2 hPa 3,4 l/m 1,0 km/h N 16,8 C 20,3 C 5,2 km/h
30.07.2014 23:00 19,9 C 79 % 1005,4 hPa 0,8 l/m 2,0 km/h N 16,1 C 19,9 C 9,7 km/h
31.07.2014 00:00 20,2 C 78 % 1006,1 hPa 0,0 l/m 1,1 km/h N 16,2 C 20,2 C 7,7 km/h
31.07.2014 01:00 20,1 C 78 % 1006,9 hPa 0,0 l/m 0,2 km/h N 16,0 C 20,1 C 0,8 km/h
31.07.2014 02:00 19,8 C 78 % 1007,2 hPa 0,0 l/m 0,0 km/h N 15,8 C 19,8 C 1,6 km/h
31.07.2014 03:00 19,5 C 77 % 1006,7 hPa 0,0 l/m 0,0 km/h N 15,3 C 19,5 C 1,6 km/h
31.07.2014 04:00 19,1 C 77 % 1007,2 hPa 0,0 l/m 0,0 km/h N 15,1 C 19,1 C 0,4 km/h
31.07.2014 05:00 19,1 C 77 % 1007,8 hPa 0,0 l/m 0,0 km/h N 15,0 C 19,1 C 0,0 km/h
31.07.2014 06:00 19,1 C 77 % 1007,8 hPa 0,0 l/m 0,0 km/h N 15,0 C 19,1 C 0,0 km/h
31.07.2014 07:00 19,4 C 76 % 1008,3 hPa 0,0 l/m 0,2 km/h N 15,1 C 19,4 C 1,6 km/h
31.07.2014 08:00 19,9 C 76 % 1008,8 hPa 0,0 l/m 0,4 km/h N 15,4 C 19,9 C 3,2 km/h
31.07.2014 09:00 20,1 C 76 % 1009,2 hPa 0,0 l/m 0,3 km/h N 15,7 C 20,1 C 3,2 km/h
31.07.2014 10:00 20,3 C 78 % 1009,6 hPa 0,3 l/m 1,5 km/h N 16,2 C 20,3 C 6,4 km/h
31.07.2014 11:00 20,4 C 79 % 1010,0 hPa 0,8 l/m 0,6 km/h N 16,6 C 20,4 C 2,8 km/h
31.07.2014 12:00 20,5 C 79 % 1010,1 hPa 0,3 l/m 0,6 km/h N 16,8 C 20,5 C 3,6 km/h
31.07.2014 13:00 21,2 C 82 % 1010,0 hPa 0,0 l/m 0,9 km/h N 17,9 C 21,2 C 4,4 km/h
31.07.2014 14:00 22,7 C 80 % 1010,0 hPa 0,0 l/m 1,5 km/h N 19,0 C 22,7 C 5,6 km/h
31.07.2014 15:00 23,5 C 78 % 1010,0 hPa 0,0 l/m 4,2 km/h N 19,5 C 23,5 C 13,7 km/h
31.07.2014 16:00 22,9 C 80 % 1010,2 hPa 0,0 l/m 6,6 km/h N 19,3 C 22,7 C 19,7 km/h
31.07.2014 17:00 22,3 C 81 % 1010,2 hPa 0,0 l/m 7,5 km/h N 18,8 C 21,9 C 21,3 km/h
31.07.2014 18:00 22,0 C 82 % 1010,5 hPa 0,0 l/m 5,5 km/h N 18,7 C 22,0 C 17,3 km/h
31.07.2014 19:00 21,6 C 82 % 1010,9 hPa 0,0 l/m 4,6 km/h N 18,4 C 21,6 C 16,5 km/h
31.07.2014 20:00 20,6 C 83 % 1011,5 hPa 0,8 l/m 6,1 km/h N 17,5 C 20,5 C 17,7 km/h
31.07.2014 21:00 19,6 C 83 % 1011,8 hPa 0,0 l/m 7,3 km/h N 16,6 C 19,2 C 19,7 km/h
31.07.2014 22:00 19,3 C 83 % 1012,0 hPa 0,0 l/m 6,4 km/h N 16,4 C 19,1 C 18,9 km/h
31.07.2014 23:00 19,3 C 84 % 1012,5 hPa 0,0 l/m 4,4 km/h N 16,5 C 19,3 C 13,3 km/h
01.08.2014 00:00 19,0 C 83 % 1012,8 hPa 0,0 l/m 3,7 km/h N 16,0 C 19,0 C 11,7 km/h
01.08.2014 01:00 18,6 C 82 % 1012,5 hPa 0,3 l/m 4,8 km/h N 15,4 C 18,6 C 16,5 km/h
01.08.2014 02:00 18,5 C 82 % 1012,5 hPa 0,0 l/m 4,3 km/h N 15,2 C 18,5 C 13,3 km/h
01.08.2014 03:00 18,4 C 82 % 1012,5 hPa 0,0 l/m 4,0 km/h N 15,3 C 18,4 C 12,9 km/h
01.08.2014 04:00 18,4 C 82 % 1012,2 hPa 0,0 l/m 4,8 km/h N 15,3 C 18,4 C 14,5 km/h
01.08.2014 05:00 18,5 C 83 % 1012,0 hPa 0,0 l/m 4,8 km/h N 15,5 C 18,5 C 14,5 km/h
01.08.2014 06:00 18,5 C 83 % 1012,1 hPa 0,0 l/m 4,1 km/h N 15,5 C 18,5 C 12,5 km/h
01.08.2014 07:00 18,5 C 83 % 1012,0 hPa 0,0 l/m 5,3 km/h N 15,5 C 18,5 C 14,9 km/h
01.08.2014 08:00 18,7 C 83 % 1012,1 hPa 0,0 l/m 4,8 km/h N 15,7 C 18,7 C 14,1 km/h
01.08.2014 09:00 18,9 C 83 % 1012,3 hPa 0,0 l/m 5,3 km/h N 15,9 C 18,8 C 12,9 km/h
01.08.2014 10:00 19,3 C 84 % 1012,5 hPa 0,0 l/m 4,9 km/h N 16,5 C 19,3 C 15,3 km/h
01.08.2014 11:00 20,2 C 84 % 1012,4 hPa 0,0 l/m 5,6 km/h N 17,3 C 20,1 C 14,9 km/h
01.08.2014 12:00 21,2 C 82 % 1012,1 hPa 0,0 l/m 5,7 km/h N 18,0 C 21,2 C 16,5 km/h
01.08.2014 13:00 21,8 C 80 % 1011,8 hPa 0,0 l/m 4,3 km/h N 18,1 C 21,8 C 14,1 km/h
01.08.2014 14:00 23,0 C 77 % 1011,2 hPa 0,0 l/m 6,3 km/h N 18,7 C 22,9 C 18,9 km/h
01.08.2014 15:00 23,6 C 76 % 1010,7 hPa 0,0 l/m 4,8 km/h N 19,1 C 23,5 C 14,5 km/h
01.08.2014 16:00 23,6 C 76 % 1010,3 hPa 0,0 l/m 4,4 km/h N 19,1 C 23,6 C 14,5 km/h
01.08.2014 17:00 24,0 C 74 % 1010,0 hPa 0,0 l/m 2,0 km/h N 19,0 C 24,0 C 8,4 km/h
01.08.2014 18:00 24,5 C 72 % 1010,5 hPa 0,0 l/m 2,7 km/h N 19,2 C 24,5 C 8,9 km/h
01.08.2014 19:00 23,9 C 74 % 1010,4 hPa 0,0 l/m 0,7 km/h N 19,0 C 23,9 C 4,8 km/h
01.08.2014 20:00 23,2 C 77 % 1010,1 hPa 0,0 l/m 0,1 km/h N 18,8 C 23,2 C 0,8 km/h
01.08.2014 21:00 21,9 C 80 % 1010,2 hPa 0,0 l/m 0,0 km/h N 18,1 C 21,9 C 0,4 km/h
01.08.2014 22:00 20,6 C 82 % 1010,5 hPa 0,0 l/m 0,0 km/h N 17,4 C 20,6 C 0,0 km/h
01.08.2014 23:00 19,5 C 83 % 1010,8 hPa 0,0 l/m 0,0 km/h N 16,6 C 19,5 C 0,0 km/h
02.08.2014 00:00 18,8 C 83 % 1010,9 hPa 0,0 l/m 0,0 km/h N 15,8 C 18,8 C 0,0 km/h
02.08.2014 01:00 18,3 C 82 % 1010,6 hPa 0,0 l/m 0,0 km/h N 15,1 C 18,3 C 0,0 km/h
02.08.2014 02:00 17,8 C 82 % 1010,4 hPa 0,0 l/m 0,0 km/h N 14,6 C 17,8 C 0,0 km/h
02.08.2014 03:00 17,4 C 81 % 1010,5 hPa 0,0 l/m 0,0 km/h N 14,1 C 17,4 C 0,0 km/h
02.08.2014 04:00 17,1 C 80 % 1010,5 hPa 0,0 l/m 0,0 km/h N 13,6 C 17,1 C 0,0 km/h
02.08.2014 05:00 16,8 C 80 % 1010,4 hPa 0,0 l/m 0,0 km/h N 13,3 C 16,8 C 0,0 km/h
02.08.2014 06:00 16,8 C 79 % 1010,5 hPa 0,0 l/m 0,0 km/h N 13,1 C 16,8 C 0,0 km/h
02.08.2014 07:00 18,1 C 77 % 1010,4 hPa 0,0 l/m 0,0 km/h N 13,9 C 18,1 C 0,4 km/h
02.08.2014 08:00 20,0 C 77 % 1010,4 hPa 0,0 l/m 2,2 km/h N 15,9 C 20,0 C 6,9 km/h
02.08.2014 09:00 22,5 C 82 % 1010,2 hPa 0,0 l/m 3,2 km/h N 19,2 C 22,5 C 13,7 km/h
02.08.2014 10:00 24,6 C 77 % 1010,0 hPa 0,0 l/m 3,1 km/h N 20,2 C 24,6 C 13,7 km/h
02.08.2014 11:00 27,1 C 70 % 1009,6 hPa 0,0 l/m 2,3 km/h N 21,0 C 27,1 C 14,1 km/h
02.08.2014 12:00 28,4 C 64 % 1009,3 hPa 0,0 l/m 4,4 km/h N 21,0 C 28,4 C 18,1 km/h
02.08.2014 13:00 28,9 C 64 % 1009,1 hPa 0,0 l/m 5,8 km/h N 21,5 C 28,9 C 20,9 km/h
02.08.2014 14:00 29,4 C 61 % 1008,9 hPa 0,0 l/m 5,8 km/h N 21,0 C 29,4 C 20,9 km/h
02.08.2014 15:00 29,5 C 55 % 1008,6 hPa 0,0 l/m 7,6 km/h N 19,5 C 29,3 C 23,7 km/h
02.08.2014 16:00 29,3 C 53 % 1008,3 hPa 0,0 l/m 8,9 km/h N 18,8 C 29,0 C 23,3 km/h
02.08.2014 17:00 29,1 C 53 % 1008,0 hPa 0,0 l/m 8,6 km/h N 18,4 C 28,8 C 22,9 km/h
02.08.2014 18:00 29,1 C 52 % 1007,9 hPa 0,0 l/m 6,9 km/h N 18,1 C 29,0 C 21,3 km/h
02.08.2014 19:00 28,2 C 54 % 1008,0 hPa 0,0 l/m 5,9 km/h N 18,0 C 28,2 C 20,5 km/h
02.08.2014 20:00 26,6 C 60 % 1008,5 hPa 0,0 l/m 4,2 km/h N 18,1 C 26,6 C 14,9 km/h
02.08.2014 21:00 25,3 C 65 % 1008,9 hPa 0,0 l/m 3,2 km/h N 18,2 C 25,3 C 11,7 km/h
02.08.2014 22:00 23,9 C 71 % 1009,1 hPa 0,0 l/m 0,8 km/h N 18,3 C 23,9 C 4,8 km/h
02.08.2014 23:00 22,3 C 76 % 1009,1 hPa 0,0 l/m 0,0 km/h N 17,9 C 22,3 C 0,4 km/h
03.08.2014 00:00 21,1 C 80 % 1009,0 hPa 0,0 l/m 0,0 km/h N 17,5 C 21,1 C 1,2 km/h
03.08.2014 01:00 20,1 C 82 % 1009,0 hPa 0,0 l/m 0,0 km/h N 17,0 C 20,1 C 0,0 km/h
03.08.2014 02:00 19,6 C 83 % 1009,1 hPa 0,0 l/m 0,1 km/h N 16,7 C 19,6 C 0,8 km/h
03.08.2014 03:00 19,3 C 83 % 1009,1 hPa 0,0 l/m 0,1 km/h N 16,3 C 19,3 C 1,2 km/h
03.08.2014 04:00 18,7 C 83 % 1009,3 hPa 0,0 l/m 0,1 km/h N 15,7 C 18,7 C 1,6 km/h
03.08.2014 05:00 18,3 C 82 % 1009,5 hPa 0,0 l/m 0,0 km/h N 15,1 C 18,3 C 0,0 km/h
03.08.2014 06:00 18,2 C 81 % 1009,8 hPa 0,0 l/m 0,1 km/h N 14,8 C 18,2 C 0,8 km/h
03.08.2014 07:00 19,4 C 78 % 1010,0 hPa 0,0 l/m 0,1 km/h N 15,5 C 19,4 C 1,6 km/h
03.08.2014 08:00 21,4 C 80 % 1010,3 hPa 0,0 l/m 0,6 km/h N 17,9 C 21,4 C 5,2 km/h
03.08.2014 09:00 24,5 C 78 % 1010,1 hPa 0,0 l/m 0,7 km/h N 20,4 C 24,5 C 6,0 km/h
03.08.2014 10:00 26,4 C 73 % 1010,1 hPa 0,0 l/m 0,4 km/h N 21,1 C 26,4 C 6,4 km/h
03.08.2014 11:00 28,2 C 63 % 1009,9 hPa 0,0 l/m 2,2 km/h N 20,5 C 28,2 C 12,9 km/h
03.08.2014 12:00 29,0 C 62 % 1009,6 hPa 0,0 l/m 3,3 km/h N 20,8 C 29,0 C 12,9 km/h
03.08.2014 13:00 29,7 C 58 % 1008,8 hPa 0,0 l/m 2,2 km/h N 20,5 C 29,7 C 14,5 km/h
03.08.2014 14:00 28,3 C 60 % 1008,9 hPa 0,0 l/m 4,2 km/h N 19,8 C 28,3 C 22,5 km/h
03.08.2014 15:00 25,3 C 68 % 1008,9 hPa 0,0 l/m 3,3 km/h N 18,8 C 25,3 C 17,7 km/h
03.08.2014 16:00 25,3 C 73 % 1009,0 hPa 0,0 l/m 0,4 km/h N 20,0 C 25,3 C 4,8 km/h
03.08.2014 17:00 24,6 C 77 % 1008,7 hPa 0,0 l/m 1,0 km/h N 20,3 C 24,6 C 5,6 km/h
03.08.2014 18:00 23,1 C 79 % 1009,0 hPa 0,0 l/m 1,7 km/h N 19,3 C 23,1 C 6,9 km/h
03.08.2014 19:00 22,5 C 78 % 1009,2 hPa 0,0 l/m 1,3 km/h N 18,3 C 22,5 C 7,2 km/h
03.08.2014 20:00 21,4 C 76 % 1009,4 hPa 0,0 l/m 2,4 km/h N 17,0 C 21,4 C 9,7 km/h
03.08.2014 21:00 20,1 C 81 % 1010,5 hPa 1,8 l/m 3,2 km/h N 16,7 C 20,1 C 11,7 km/h
03.08.2014 22:00 19,1 C 83 % 1010,7 hPa 1,8 l/m 0,6 km/h N 16,1 C 19,1 C 4,8 km/h
03.08.2014 23:00 18,7 C 82 % 1011,1 hPa 0,3 l/m 0,5 km/h N 15,6 C 18,7 C 3,6 km/h
Min-Datum _ 02.08.14 02.08.14 29.07.14 - 28.07.14 - 02.08.14 02.08.14 28.07.14
_ Min-Zeit 05:30 18:30 19:45 - 00:00 - 06:45 05:30 00:00
Minimum _ 16,7 C 51 % 1004,6 hPa - 0,0 km/h - 13,0 C 16,7 C 0,0 km/h
Max-Datum _ 03.08.14 31.07.14 01.08.14 30.07.14 02.08.14 - 02.08.14 03.08.14 03.08.14
_ Max-Zeit 13:30 22:45 00:00 22:45 16:45 - 13:15 13:30 14:45
Maximum _ 30,2 C 84 % 1012,8 hPa 3,4 l/m 10,2 km/h
N
- 21,7 C 30,2 C 32,2 km/h
N
Durchschnitt _ 21,7 C 77 % 1009,0 hPa #18,5 l/m 2,1 km/h N 17,3 C 21,7 C 8,0 km/h